sensor_id;sensor_type;location;lat;lon;timestamp;P1;durP1;ratioP1;P2;durP2;ratioP2
11305;SDS011;5708;50.660;6.778;2023-06-26T00:00:09;6.68;;;4.88;;
11305;SDS011;5708;50.660;6.778;2023-06-26T00:02:36;8.10;;;5.03;;
11305;SDS011;5708;50.660;6.778;2023-06-26T00:05:01;8.98;;;5.70;;
11305;SDS011;5708;50.660;6.778;2023-06-26T00:07:29;8.50;;;5.88;;
11305;SDS011;5708;50.660;6.778;2023-06-26T00:09:56;8.95;;;6.13;;
11305;SDS011;5708;50.660;6.778;2023-06-26T00:12:22;11.02;;;6.20;;
11305;SDS011;5708;50.660;6.778;2023-06-26T00:14:47;7.97;;;5.55;;
11305;SDS011;5708;50.660;6.778;2023-06-26T00:17:12;8.18;;;5.45;;
11305;SDS011;5708;50.660;6.778;2023-06-26T00:19:38;9.35;;;5.65;;
11305;SDS011;5708;50.660;6.778;2023-06-26T00:22:03;8.45;;;5.82;;
11305;SDS011;5708;50.660;6.778;2023-06-26T00:24:29;7.90;;;5.60;;
11305;SDS011;5708;50.660;6.778;2023-06-26T00:26:54;7.88;;;5.40;;
11305;SDS011;5708;50.660;6.778;2023-06-26T00:29:19;7.85;;;5.47;;
11305;SDS011;5708;50.660;6.778;2023-06-26T00:31:45;7.75;;;4.78;;
11305;SDS011;5708;50.660;6.778;2023-06-26T00:34:11;8.88;;;4.80;;
11305;SDS011;5708;50.660;6.778;2023-06-26T00:36:36;7.60;;;5.05;;
11305;SDS011;5708;50.660;6.778;2023-06-26T00:39:01;8.50;;;5.20;;
11305;SDS011;5708;50.660;6.778;2023-06-26T00:41:28;6.88;;;5.00;;
11305;SDS011;5708;50.660;6.778;2023-06-26T00:43:54;7.90;;;4.88;;
11305;SDS011;5708;50.660;6.778;2023-06-26T00:46:19;7.20;;;4.88;;
11305;SDS011;5708;50.660;6.778;2023-06-26T00:48:45;7.93;;;5.10;;
11305;SDS011;5708;50.660;6.778;2023-06-26T00:51:11;7.53;;;5.15;;
11305;SDS011;5708;50.660;6.778;2023-06-26T00:53:37;9.02;;;5.15;;
11305;SDS011;5708;50.660;6.778;2023-06-26T00:56:02;7.03;;;5.20;;
11305;SDS011;5708;50.660;6.778;2023-06-26T00:58:28;7.55;;;5.15;;
11305;SDS011;5708;50.660;6.778;2023-06-26T01:00:54;6.93;;;4.88;;
11305;SDS011;5708;50.660;6.778;2023-06-26T01:03:20;7.30;;;5.30;;
11305;SDS011;5708;50.660;6.778;2023-06-26T01:05:47;7.00;;;5.15;;
11305;SDS011;5708;50.660;6.778;2023-06-26T01:08:14;9.07;;;5.10;;
11305;SDS011;5708;50.660;6.778;2023-06-26T01:10:40;8.95;;;5.10;;
11305;SDS011;5708;50.660;6.778;2023-06-26T01:13:06;7.57;;;5.07;;
11305;SDS011;5708;50.660;6.778;2023-06-26T01:15:31;8.00;;;5.45;;
11305;SDS011;5708;50.660;6.778;2023-06-26T01:17:57;7.35;;;4.93;;
11305;SDS011;5708;50.660;6.778;2023-06-26T01:20:29;8.80;;;4.93;;
11305;SDS011;5708;50.660;6.778;2023-06-26T01:23:13;7.47;;;4.90;;
11305;SDS011;5708;50.660;6.778;2023-06-26T01:25:42;6.80;;;4.80;;
11305;SDS011;5708;50.660;6.778;2023-06-26T01:28:31;8.27;;;5.07;;
11305;SDS011;5708;50.660;6.778;2023-06-26T01:30:58;9.88;;;5.38;;
11305;SDS011;5708;50.660;6.778;2023-06-26T01:33:24;7.60;;;5.28;;
11305;SDS011;5708;50.660;6.778;2023-06-26T01:35:49;8.45;;;5.18;;
11305;SDS011;5708;50.660;6.778;2023-06-26T01:38:15;7.30;;;5.10;;
11305;SDS011;5708;50.660;6.778;2023-06-26T01:40:45;9.63;;;5.22;;
11305;SDS011;5708;50.660;6.778;2023-06-26T01:43:15;6.45;;;4.60;;
11305;SDS011;5708;50.660;6.778;2023-06-26T01:46:04;8.00;;;4.97;;
11305;SDS011;5708;50.660;6.778;2023-06-26T01:48:34;6.95;;;4.75;;
11305;SDS011;5708;50.660;6.778;2023-06-26T01:51:06;8.07;;;4.88;;
11305;SDS011;5708;50.660;6.778;2023-06-26T01:53:33;8.95;;;5.20;;
11305;SDS011;5708;50.660;6.778;2023-06-26T01:56:14;7.03;;;4.85;;
11305;SDS011;5708;50.660;6.778;2023-06-26T01:58:43;7.00;;;4.72;;
11305;SDS011;5708;50.660;6.778;2023-06-26T02:01:09;6.65;;;4.55;;
11305;SDS011;5708;50.660;6.778;2023-06-26T02:03:34;7.50;;;4.90;;
11305;SDS011;5708;50.660;6.778;2023-06-26T02:06:00;7.88;;;5.05;;
11305;SDS011;5708;50.660;6.778;2023-06-26T02:08:25;7.45;;;5.15;;
11305;SDS011;5708;50.660;6.778;2023-06-26T02:10:50;10.85;;;5.45;;
11305;SDS011;5708;50.660;6.778;2023-06-26T02:13:16;7.13;;;4.90;;
11305;SDS011;5708;50.660;6.778;2023-06-26T02:15:41;7.50;;;5.15;;
11305;SDS011;5708;50.660;6.778;2023-06-26T02:18:06;9.63;;;5.38;;
11305;SDS011;5708;50.660;6.778;2023-06-26T02:20:32;8.32;;;5.53;;
11305;SDS011;5708;50.660;6.778;2023-06-26T02:22:58;7.80;;;5.60;;
11305;SDS011;5708;50.660;6.778;2023-06-26T02:25:23;9.35;;;5.20;;
11305;SDS011;5708;50.660;6.778;2023-06-26T02:27:49;7.88;;;4.68;;
11305;SDS011;5708;50.660;6.778;2023-06-26T02:30:14;8.40;;;4.75;;
11305;SDS011;5708;50.660;6.778;2023-06-26T02:32:40;6.60;;;4.70;;
11305;SDS011;5708;50.660;6.778;2023-06-26T02:35:05;8.38;;;5.25;;
11305;SDS011;5708;50.660;6.778;2023-06-26T02:37:31;10.32;;;5.22;;
11305;SDS011;5708;50.660;6.778;2023-06-26T02:39:56;8.60;;;5.68;;
11305;SDS011;5708;50.660;6.778;2023-06-26T02:42:22;8.38;;;5.50;;
11305;SDS011;5708;50.660;6.778;2023-06-26T02:44:47;8.20;;;5.80;;
11305;SDS011;5708;50.660;6.778;2023-06-26T02:47:12;7.70;;;5.22;;
11305;SDS011;5708;50.660;6.778;2023-06-26T02:49:39;8.40;;;5.50;;
11305;SDS011;5708;50.660;6.778;2023-06-26T02:52:04;7.45;;;5.63;;
11305;SDS011;5708;50.660;6.778;2023-06-26T02:54:29;8.57;;;5.57;;
11305;SDS011;5708;50.660;6.778;2023-06-26T02:56:55;9.13;;;6.03;;
11305;SDS011;5708;50.660;6.778;2023-06-26T02:59:20;7.13;;;5.15;;
11305;SDS011;5708;50.660;6.778;2023-06-26T03:01:45;9.15;;;6.07;;
11305;SDS011;5708;50.660;6.778;2023-06-26T03:04:11;7.43;;;5.30;;
11305;SDS011;5708;50.660;6.778;2023-06-26T03:06:36;7.30;;;5.43;;
11305;SDS011;5708;50.660;6.778;2023-06-26T03:09:02;7.97;;;5.32;;
11305;SDS011;5708;50.660;6.778;2023-06-26T03:11:28;7.32;;;4.95;;
11305;SDS011;5708;50.660;6.778;2023-06-26T03:13:53;7.40;;;5.20;;
11305;SDS011;5708;50.660;6.778;2023-06-26T03:16:19;7.60;;;5.05;;
11305;SDS011;5708;50.660;6.778;2023-06-26T03:18:44;7.85;;;4.80;;
11305;SDS011;5708;50.660;6.778;2023-06-26T03:21:09;7.10;;;5.00;;
11305;SDS011;5708;50.660;6.778;2023-06-26T03:23:35;7.57;;;5.40;;
11305;SDS011;5708;50.660;6.778;2023-06-26T03:26:00;7.88;;;5.45;;
11305;SDS011;5708;50.660;6.778;2023-06-26T03:28:26;7.57;;;5.38;;
11305;SDS011;5708;50.660;6.778;2023-06-26T03:30:51;9.77;;;5.57;;
11305;SDS011;5708;50.660;6.778;2023-06-26T03:33:16;7.68;;;5.25;;
11305;SDS011;5708;50.660;6.778;2023-06-26T03:35:42;8.80;;;5.75;;
11305;SDS011;5708;50.660;6.778;2023-06-26T03:38:08;8.75;;;5.80;;
11305;SDS011;5708;50.660;6.778;2023-06-26T03:40:33;8.43;;;5.60;;
11305;SDS011;5708;50.660;6.778;2023-06-26T03:42:58;7.22;;;5.28;;
11305;SDS011;5708;50.660;6.778;2023-06-26T03:45:24;7.25;;;5.15;;
11305;SDS011;5708;50.660;6.778;2023-06-26T03:47:49;7.78;;;5.07;;
11305;SDS011;5708;50.660;6.778;2023-06-26T03:50:18;7.25;;;5.60;;
11305;SDS011;5708;50.660;6.778;2023-06-26T03:52:44;9.18;;;5.50;;
11305;SDS011;5708;50.660;6.778;2023-06-26T03:55:09;8.20;;;5.75;;
11305;SDS011;5708;50.660;6.778;2023-06-26T03:57:35;8.27;;;5.50;;
11305;SDS011;5708;50.660;6.778;2023-06-26T04:00:00;8.93;;;5.32;;
11305;SDS011;5708;50.660;6.778;2023-06-26T04:02:26;9.05;;;5.95;;
11305;SDS011;5708;50.660;6.778;2023-06-26T04:04:51;7.45;;;5.55;;
11305;SDS011;5708;50.660;6.778;2023-06-26T04:07:17;9.35;;;5.60;;
11305;SDS011;5708;50.660;6.778;2023-06-26T04:09:43;9.18;;;5.60;;
11305;SDS011;5708;50.660;6.778;2023-06-26T04:12:08;8.27;;;5.45;;
11305;SDS011;5708;50.660;6.778;2023-06-26T04:14:34;9.07;;;5.82;;
11305;SDS011;5708;50.660;6.778;2023-06-26T04:16:59;8.15;;;5.63;;
11305;SDS011;5708;50.660;6.778;2023-06-26T04:19:28;9.38;;;5.72;;
11305;SDS011;5708;50.660;6.778;2023-06-26T04:21:53;8.57;;;5.72;;
11305;SDS011;5708;50.660;6.778;2023-06-26T04:24:19;8.60;;;5.78;;
11305;SDS011;5708;50.660;6.778;2023-06-26T04:26:44;8.57;;;5.60;;
11305;SDS011;5708;50.660;6.778;2023-06-26T04:29:10;8.70;;;5.80;;
11305;SDS011;5708;50.660;6.778;2023-06-26T04:31:35;8.02;;;5.15;;
11305;SDS011;5708;50.660;6.778;2023-06-26T04:34:01;7.57;;;5.20;;
11305;SDS011;5708;50.660;6.778;2023-06-26T04:36:26;9.90;;;5.88;;
11305;SDS011;5708;50.660;6.778;2023-06-26T04:38:55;8.85;;;5.93;;
11305;SDS011;5708;50.660;6.778;2023-06-26T04:41:21;8.18;;;5.47;;
11305;SDS011;5708;50.660;6.778;2023-06-26T04:43:46;9.57;;;5.55;;
11305;SDS011;5708;50.660;6.778;2023-06-26T04:46:12;10.45;;;5.65;;
11305;SDS011;5708;50.660;6.778;2023-06-26T04:48:37;10.68;;;5.22;;
11305;SDS011;5708;50.660;6.778;2023-06-26T04:51:02;12.38;;;5.50;;
11305;SDS011;5708;50.660;6.778;2023-06-26T04:53:28;16.90;;;5.68;;
11305;SDS011;5708;50.660;6.778;2023-06-26T04:55:53;10.20;;;5.47;;
11305;SDS011;5708;50.660;6.778;2023-06-26T04:58:19;7.05;;;4.60;;
11305;SDS011;5708;50.660;6.778;2023-06-26T05:00:44;8.68;;;4.53;;
11305;SDS011;5708;50.660;6.778;2023-06-26T05:03:11;8.07;;;4.85;;
11305;SDS011;5708;50.660;6.778;2023-06-26T05:05:37;7.45;;;4.72;;
11305;SDS011;5708;50.660;6.778;2023-06-26T05:08:15;10.13;;;4.72;;
11305;SDS011;5708;50.660;6.778;2023-06-26T05:10:47;8.02;;;4.43;;
11305;SDS011;5708;50.660;6.778;2023-06-26T05:13:13;7.25;;;4.53;;
11305;SDS011;5708;50.660;6.778;2023-06-26T05:15:46;8.20;;;4.50;;
11305;SDS011;5708;50.660;6.778;2023-06-26T05:18:11;7.07;;;4.60;;
11305;SDS011;5708;50.660;6.778;2023-06-26T05:20:37;6.97;;;4.15;;
11305;SDS011;5708;50.660;6.778;2023-06-26T05:23:03;8.77;;;4.55;;
11305;SDS011;5708;50.660;6.778;2023-06-26T05:25:32;9.88;;;4.30;;
11305;SDS011;5708;50.660;6.778;2023-06-26T05:27:59;9.43;;;4.55;;
11305;SDS011;5708;50.660;6.778;2023-06-26T05:30:25;7.13;;;4.20;;
11305;SDS011;5708;50.660;6.778;2023-06-26T05:32:52;7.25;;;4.43;;
11305;SDS011;5708;50.660;6.778;2023-06-26T05:35:19;7.30;;;4.25;;
11305;SDS011;5708;50.660;6.778;2023-06-26T05:37:46;9.05;;;5.13;;
11305;SDS011;5708;50.660;6.778;2023-06-26T05:40:13;8.38;;;4.65;;
11305;SDS011;5708;50.660;6.778;2023-06-26T05:42:39;8.60;;;4.50;;
11305;SDS011;5708;50.660;6.778;2023-06-26T05:45:05;8.43;;;4.32;;
11305;SDS011;5708;50.660;6.778;2023-06-26T05:47:31;8.27;;;4.75;;
11305;SDS011;5708;50.660;6.778;2023-06-26T05:49:56;9.40;;;4.70;;
11305;SDS011;5708;50.660;6.778;2023-06-26T05:52:22;7.82;;;4.25;;
11305;SDS011;5708;50.660;6.778;2023-06-26T05:54:48;7.82;;;4.30;;
11305;SDS011;5708;50.660;6.778;2023-06-26T05:57:13;8.20;;;4.20;;
11305;SDS011;5708;50.660;6.778;2023-06-26T05:59:40;7.40;;;4.30;;
11305;SDS011;5708;50.660;6.778;2023-06-26T06:02:08;10.88;;;4.88;;
11305;SDS011;5708;50.660;6.778;2023-06-26T06:04:33;9.52;;;4.38;;
11305;SDS011;5708;50.660;6.778;2023-06-26T06:07:00;9.40;;;4.03;;
11305;SDS011;5708;50.660;6.778;2023-06-26T06:09:25;8.32;;;4.18;;
11305;SDS011;5708;50.660;6.778;2023-06-26T06:11:50;10.60;;;4.78;;
11305;SDS011;5708;50.660;6.778;2023-06-26T06:14:16;8.02;;;4.20;;
11305;SDS011;5708;50.660;6.778;2023-06-26T06:16:41;13.05;;;4.63;;
11305;SDS011;5708;50.660;6.778;2023-06-26T06:19:06;8.48;;;3.97;;
11305;SDS011;5708;50.660;6.778;2023-06-26T06:21:34;8.35;;;4.30;;
11305;SDS011;5708;50.660;6.778;2023-06-26T06:24:00;9.43;;;4.15;;
11305;SDS011;5708;50.660;6.778;2023-06-26T06:26:26;8.85;;;4.15;;
11305;SDS011;5708;50.660;6.778;2023-06-26T06:28:51;8.18;;;4.00;;
11305;SDS011;5708;50.660;6.778;2023-06-26T06:31:17;11.73;;;4.47;;
11305;SDS011;5708;50.660;6.778;2023-06-26T06:33:42;6.63;;;3.95;;
11305;SDS011;5708;50.660;6.778;2023-06-26T06:36:07;11.35;;;4.18;;
11305;SDS011;5708;50.660;6.778;2023-06-26T06:38:33;11.70;;;4.38;;
11305;SDS011;5708;50.660;6.778;2023-06-26T06:40:58;11.07;;;5.00;;
11305;SDS011;5708;50.660;6.778;2023-06-26T06:43:24;8.30;;;4.68;;
11305;SDS011;5708;50.660;6.778;2023-06-26T06:45:49;13.00;;;5.18;;
11305;SDS011;5708;50.660;6.778;2023-06-26T06:48:14;11.77;;;4.93;;
11305;SDS011;5708;50.660;6.778;2023-06-26T06:50:40;12.32;;;5.07;;
11305;SDS011;5708;50.660;6.778;2023-06-26T06:53:05;13.20;;;5.43;;
11305;SDS011;5708;50.660;6.778;2023-06-26T06:55:30;13.30;;;5.10;;
11305;SDS011;5708;50.660;6.778;2023-06-26T06:57:56;10.05;;;4.50;;
11305;SDS011;5708;50.660;6.778;2023-06-26T07:00:21;10.93;;;4.90;;
11305;SDS011;5708;50.660;6.778;2023-06-26T07:02:47;14.00;;;5.55;;
11305;SDS011;5708;50.660;6.778;2023-06-26T07:05:15;10.85;;;5.53;;
11305;SDS011;5708;50.660;6.778;2023-06-26T07:07:41;11.95;;;5.47;;
11305;SDS011;5708;50.660;6.778;2023-06-26T07:10:07;9.40;;;5.40;;
11305;SDS011;5708;50.660;6.778;2023-06-26T07:12:34;13.65;;;5.53;;
11305;SDS011;5708;50.660;6.778;2023-06-26T07:15:00;13.43;;;5.60;;
11305;SDS011;5708;50.660;6.778;2023-06-26T07:17:26;11.90;;;5.85;;
11305;SDS011;5708;50.660;6.778;2023-06-26T07:19:52;10.25;;;5.20;;
11305;SDS011;5708;50.660;6.778;2023-06-26T07:22:17;9.10;;;5.20;;
11305;SDS011;5708;50.660;6.778;2023-06-26T07:24:45;10.23;;;5.60;;
11305;SDS011;5708;50.660;6.778;2023-06-26T07:27:11;9.43;;;5.22;;
11305;SDS011;5708;50.660;6.778;2023-06-26T07:29:36;10.90;;;5.57;;
11305;SDS011;5708;50.660;6.778;2023-06-26T07:32:02;10.77;;;5.25;;
11305;SDS011;5708;50.660;6.778;2023-06-26T07:34:27;14.20;;;5.72;;
11305;SDS011;5708;50.660;6.778;2023-06-26T07:36:52;11.52;;;5.65;;
11305;SDS011;5708;50.660;6.778;2023-06-26T07:39:18;12.50;;;5.90;;
11305;SDS011;5708;50.660;6.778;2023-06-26T07:41:43;10.02;;;5.72;;
11305;SDS011;5708;50.660;6.778;2023-06-26T07:44:09;14.43;;;5.47;;
11305;SDS011;5708;50.660;6.778;2023-06-26T07:46:34;10.73;;;5.72;;
11305;SDS011;5708;50.660;6.778;2023-06-26T07:49:00;12.25;;;5.15;;
11305;SDS011;5708;50.660;6.778;2023-06-26T07:51:25;10.25;;;4.97;;
11305;SDS011;5708;50.660;6.778;2023-06-26T07:53:50;12.15;;;5.30;;
11305;SDS011;5708;50.660;6.778;2023-06-26T07:56:16;11.20;;;4.95;;
11305;SDS011;5708;50.660;6.778;2023-06-26T07:58:41;8.77;;;4.30;;
11305;SDS011;5708;50.660;6.778;2023-06-26T08:01:06;10.88;;;4.30;;
11305;SDS011;5708;50.660;6.778;2023-06-26T08:03:32;9.52;;;4.28;;
11305;SDS011;5708;50.660;6.778;2023-06-26T08:05:57;11.15;;;4.80;;
11305;SDS011;5708;50.660;6.778;2023-06-26T08:08:22;11.38;;;4.75;;
11305;SDS011;5708;50.660;6.778;2023-06-26T08:10:48;11.85;;;4.68;;
11305;SDS011;5708;50.660;6.778;2023-06-26T08:13:13;12.30;;;4.80;;
11305;SDS011;5708;50.660;6.778;2023-06-26T08:15:38;13.45;;;4.60;;
11305;SDS011;5708;50.660;6.778;2023-06-26T08:18:04;11.75;;;4.80;;
11305;SDS011;5708;50.660;6.778;2023-06-26T08:20:29;12.57;;;4.30;;
11305;SDS011;5708;50.660;6.778;2023-06-26T08:22:56;12.30;;;3.83;;
11305;SDS011;5708;50.660;6.778;2023-06-26T08:25:21;10.93;;;4.00;;
11305;SDS011;5708;50.660;6.778;2023-06-26T08:27:47;10.82;;;4.00;;
11305;SDS011;5708;50.660;6.778;2023-06-26T08:30:12;11.52;;;4.10;;
11305;SDS011;5708;50.660;6.778;2023-06-26T08:32:38;11.73;;;3.95;;
11305;SDS011;5708;50.660;6.778;2023-06-26T08:35:05;13.82;;;3.83;;
11305;SDS011;5708;50.660;6.778;2023-06-26T08:37:31;13.50;;;4.30;;
11305;SDS011;5708;50.660;6.778;2023-06-26T08:39:57;15.75;;;4.60;;
11305;SDS011;5708;50.660;6.778;2023-06-26T08:42:24;10.32;;;3.90;;
11305;SDS011;5708;50.660;6.778;2023-06-26T08:44:49;13.48;;;3.92;;
11305;SDS011;5708;50.660;6.778;2023-06-26T08:47:14;13.52;;;4.55;;
11305;SDS011;5708;50.660;6.778;2023-06-26T08:52:29;10.77;;;3.63;;
11305;SDS011;5708;50.660;6.778;2023-06-26T08:54:57;9.73;;;3.13;;
11305;SDS011;5708;50.660;6.778;2023-06-26T08:57:24;11.38;;;3.35;;
11305;SDS011;5708;50.660;6.778;2023-06-26T08:59:50;11.18;;;3.40;;
11305;SDS011;5708;50.660;6.778;2023-06-26T09:02:16;9.13;;;3.13;;
11305;SDS011;5708;50.660;6.778;2023-06-26T09:04:42;8.65;;;2.80;;
11305;SDS011;5708;50.660;6.778;2023-06-26T09:07:07;7.82;;;2.50;;
11305;SDS011;5708;50.660;6.778;2023-06-26T09:09:36;7.85;;;2.78;;
11305;SDS011;5708;50.660;6.778;2023-06-26T09:12:02;9.00;;;2.60;;
11305;SDS011;5708;50.660;6.778;2023-06-26T09:14:28;8.45;;;2.60;;
11305;SDS011;5708;50.660;6.778;2023-06-26T09:16:54;9.32;;;2.33;;
11305;SDS011;5708;50.660;6.778;2023-06-26T09:19:19;11.95;;;2.50;;
11305;SDS011;5708;50.660;6.778;2023-06-26T09:21:45;9.43;;;2.60;;
11305;SDS011;5708;50.660;6.778;2023-06-26T09:24:14;6.35;;;2.10;;
11305;SDS011;5708;50.660;6.778;2023-06-26T09:26:40;14.13;;;2.72;;
11305;SDS011;5708;50.660;6.778;2023-06-26T09:29:05;7.18;;;2.33;;
11305;SDS011;5708;50.660;6.778;2023-06-26T09:31:32;9.50;;;2.35;;
11305;SDS011;5708;50.660;6.778;2023-06-26T09:33:58;7.57;;;2.53;;
11305;SDS011;5708;50.660;6.778;2023-06-26T09:36:26;9.52;;;2.35;;
11305;SDS011;5708;50.660;6.778;2023-06-26T09:38:53;7.13;;;2.20;;
11305;SDS011;5708;50.660;6.778;2023-06-26T09:41:19;8.23;;;2.22;;
11305;SDS011;5708;50.660;6.778;2023-06-26T09:43:45;5.88;;;1.80;;
11305;SDS011;5708;50.660;6.778;2023-06-26T09:48:57;6.53;;;1.83;;
11305;SDS011;5708;50.660;6.778;2023-06-26T09:51:23;8.10;;;1.85;;
11305;SDS011;5708;50.660;6.778;2023-06-26T09:53:49;7.38;;;1.90;;
11305;SDS011;5708;50.660;6.778;2023-06-26T09:56:17;8.25;;;2.13;;
11305;SDS011;5708;50.660;6.778;2023-06-26T09:58:43;4.53;;;1.48;;
11305;SDS011;5708;50.660;6.778;2023-06-26T10:01:12;4.88;;;1.70;;
11305;SDS011;5708;50.660;6.778;2023-06-26T10:03:38;9.20;;;2.03;;
11305;SDS011;5708;50.660;6.778;2023-06-26T10:06:03;6.57;;;2.17;;
11305;SDS011;5708;50.660;6.778;2023-06-26T10:08:29;7.60;;;2.20;;
11305;SDS011;5708;50.660;6.778;2023-06-26T10:10:55;7.63;;;2.10;;
11305;SDS011;5708;50.660;6.778;2023-06-26T10:13:22;9.15;;;2.10;;
11305;SDS011;5708;50.660;6.778;2023-06-26T10:15:52;6.80;;;2.17;;
11305;SDS011;5708;50.660;6.778;2023-06-26T10:18:18;15.60;;;1.92;;
11305;SDS011;5708;50.660;6.778;2023-06-26T10:20:47;6.03;;;1.70;;
11305;SDS011;5708;50.660;6.778;2023-06-26T10:23:14;7.60;;;1.75;;
11305;SDS011;5708;50.660;6.778;2023-06-26T10:25:40;6.38;;;2.17;;
11305;SDS011;5708;50.660;6.778;2023-06-26T10:28:07;12.13;;;2.10;;
11305;SDS011;5708;50.660;6.778;2023-06-26T10:30:34;8.82;;;2.20;;
11305;SDS011;5708;50.660;6.778;2023-06-26T10:33:01;8.05;;;1.83;;
11305;SDS011;5708;50.660;6.778;2023-06-26T10:35:28;6.30;;;1.95;;
11305;SDS011;5708;50.660;6.778;2023-06-26T10:37:59;5.55;;;1.80;;
11305;SDS011;5708;50.660;6.778;2023-06-26T10:40:33;5.20;;;1.58;;
11305;SDS011;5708;50.660;6.778;2023-06-26T10:43:06;7.10;;;1.85;;
11305;SDS011;5708;50.660;6.778;2023-06-26T10:45:33;6.82;;;2.10;;
11305;SDS011;5708;50.660;6.778;2023-06-26T10:48:00;7.63;;;1.73;;
11305;SDS011;5708;50.660;6.778;2023-06-26T10:55:43;12.90;;;2.55;;
11305;SDS011;5708;50.660;6.778;2023-06-26T11:01:17;6.10;;;1.90;;
11305;SDS011;5708;50.660;6.778;2023-06-26T11:03:45;9.10;;;2.38;;
11305;SDS011;5708;50.660;6.778;2023-06-26T11:06:16;6.13;;;1.88;;
11305;SDS011;5708;50.660;6.778;2023-06-26T11:11:12;5.25;;;1.70;;
11305;SDS011;5708;50.660;6.778;2023-06-26T11:13:38;5.93;;;1.80;;
11305;SDS011;5708;50.660;6.778;2023-06-26T11:16:04;8.70;;;2.03;;
11305;SDS011;5708;50.660;6.778;2023-06-26T11:18:31;6.40;;;1.45;;
11305;SDS011;5708;50.660;6.778;2023-06-26T11:21:03;6.18;;;1.70;;
11305;SDS011;5708;50.660;6.778;2023-06-26T11:23:30;4.88;;;1.35;;
11305;SDS011;5708;50.660;6.778;2023-06-26T11:25:58;5.43;;;1.70;;
11305;SDS011;5708;50.660;6.778;2023-06-26T11:28:36;5.07;;;1.70;;
11305;SDS011;5708;50.660;6.778;2023-06-26T11:31:02;7.10;;;1.60;;
11305;SDS011;5708;50.660;6.778;2023-06-26T11:33:28;6.07;;;1.88;;
11305;SDS011;5708;50.660;6.778;2023-06-26T11:35:53;6.38;;;1.65;;
11305;SDS011;5708;50.660;6.778;2023-06-26T11:38:19;7.18;;;2.00;;
11305;SDS011;5708;50.660;6.778;2023-06-26T11:40:44;7.53;;;1.95;;
11305;SDS011;5708;50.660;6.778;2023-06-26T11:43:10;4.38;;;1.50;;
11305;SDS011;5708;50.660;6.778;2023-06-26T11:45:35;10.23;;;1.77;;
11305;SDS011;5708;50.660;6.778;2023-06-26T11:48:01;7.25;;;1.75;;
11305;SDS011;5708;50.660;6.778;2023-06-26T11:50:27;5.60;;;1.67;;
11305;SDS011;5708;50.660;6.778;2023-06-26T11:52:53;4.60;;;1.58;;
11305;SDS011;5708;50.660;6.778;2023-06-26T11:55:20;5.95;;;1.63;;
11305;SDS011;5708;50.660;6.778;2023-06-26T11:57:53;5.32;;;2.30;;
11305;SDS011;5708;50.660;6.778;2023-06-26T12:00:19;6.03;;;1.67;;
11305;SDS011;5708;50.660;6.778;2023-06-26T12:02:45;6.80;;;1.67;;
11305;SDS011;5708;50.660;6.778;2023-06-26T12:05:11;3.28;;;1.50;;
11305;SDS011;5708;50.660;6.778;2023-06-26T12:07:43;5.40;;;1.80;;
11305;SDS011;5708;50.660;6.778;2023-06-26T12:10:12;6.13;;;1.92;;
11305;SDS011;5708;50.660;6.778;2023-06-26T12:12:38;8.55;;;1.88;;
11305;SDS011;5708;50.660;6.778;2023-06-26T12:15:05;7.60;;;1.67;;
11305;SDS011;5708;50.660;6.778;2023-06-26T12:17:31;6.18;;;1.83;;
11305;SDS011;5708;50.660;6.778;2023-06-26T12:19:57;12.88;;;2.67;;
11305;SDS011;5708;50.660;6.778;2023-06-26T12:22:22;9.23;;;2.60;;
11305;SDS011;5708;50.660;6.778;2023-06-26T12:24:48;7.28;;;2.25;;
11305;SDS011;5708;50.660;6.778;2023-06-26T12:27:14;7.25;;;1.77;;
11305;SDS011;5708;50.660;6.778;2023-06-26T12:29:41;6.32;;;1.90;;
11305;SDS011;5708;50.660;6.778;2023-06-26T12:32:12;6.80;;;1.80;;
11305;SDS011;5708;50.660;6.778;2023-06-26T12:34:38;5.55;;;1.60;;
11305;SDS011;5708;50.660;6.778;2023-06-26T12:37:10;5.40;;;1.67;;
11305;SDS011;5708;50.660;6.778;2023-06-26T12:39:49;4.80;;;1.80;;
11305;SDS011;5708;50.660;6.778;2023-06-26T12:42:16;7.15;;;1.90;;
11305;SDS011;5708;50.660;6.778;2023-06-26T12:44:45;8.32;;;2.10;;
11305;SDS011;5708;50.660;6.778;2023-06-26T12:47:10;5.85;;;1.88;;
11305;SDS011;5708;50.660;6.778;2023-06-26T12:49:42;5.63;;;1.90;;
11305;SDS011;5708;50.660;6.778;2023-06-26T12:52:09;8.80;;;2.00;;
11305;SDS011;5708;50.660;6.778;2023-06-26T12:54:38;8.48;;;1.80;;
11305;SDS011;5708;50.660;6.778;2023-06-26T12:57:04;6.13;;;1.98;;
11305;SDS011;5708;50.660;6.778;2023-06-26T12:59:30;4.65;;;1.85;;
11305;SDS011;5708;50.660;6.778;2023-06-26T13:01:57;6.43;;;1.70;;
11305;SDS011;5708;50.660;6.778;2023-06-26T13:04:22;8.27;;;1.85;;
11305;SDS011;5708;50.660;6.778;2023-06-26T13:06:48;6.72;;;1.98;;
11305;SDS011;5708;50.660;6.778;2023-06-26T13:09:14;8.35;;;1.75;;
11305;SDS011;5708;50.660;6.778;2023-06-26T13:11:40;7.80;;;1.90;;
11305;SDS011;5708;50.660;6.778;2023-06-26T13:14:05;9.60;;;1.83;;
11305;SDS011;5708;50.660;6.778;2023-06-26T13:16:31;8.52;;;1.83;;
11305;SDS011;5708;50.660;6.778;2023-06-26T13:18:57;8.48;;;1.60;;
11305;SDS011;5708;50.660;6.778;2023-06-26T13:21:23;6.05;;;1.70;;
11305;SDS011;5708;50.660;6.778;2023-06-26T13:23:48;8.02;;;1.60;;
11305;SDS011;5708;50.660;6.778;2023-06-26T13:26:14;7.32;;;1.50;;
11305;SDS011;5708;50.660;6.778;2023-06-26T13:28:39;8.00;;;1.60;;
11305;SDS011;5708;50.660;6.778;2023-06-26T13:31:05;7.93;;;1.70;;
11305;SDS011;5708;50.660;6.778;2023-06-26T13:33:30;5.25;;;1.45;;
11305;SDS011;5708;50.660;6.778;2023-06-26T13:35:56;5.13;;;1.70;;
11305;SDS011;5708;50.660;6.778;2023-06-26T13:38:22;6.97;;;1.67;;
11305;SDS011;5708;50.660;6.778;2023-06-26T13:40:51;7.63;;;1.70;;
11305;SDS011;5708;50.660;6.778;2023-06-26T13:43:18;6.53;;;1.90;;
11305;SDS011;5708;50.660;6.778;2023-06-26T13:45:43;8.88;;;1.65;;
11305;SDS011;5708;50.660;6.778;2023-06-26T13:48:10;7.93;;;1.98;;
11305;SDS011;5708;50.660;6.778;2023-06-26T13:50:35;7.63;;;1.70;;
11305;SDS011;5708;50.660;6.778;2023-06-26T13:53:01;3.88;;;1.67;;
11305;SDS011;5708;50.660;6.778;2023-06-26T13:55:27;10.27;;;2.10;;
11305;SDS011;5708;50.660;6.778;2023-06-26T13:57:52;11.82;;;2.25;;
11305;SDS011;5708;50.660;6.778;2023-06-26T14:00:18;6.53;;;1.67;;
11305;SDS011;5708;50.660;6.778;2023-06-26T14:02:45;7.85;;;1.88;;
11305;SDS011;5708;50.660;6.778;2023-06-26T14:05:11;5.47;;;1.60;;
11305;SDS011;5708;50.660;6.778;2023-06-26T14:07:36;8.95;;;1.92;;
11305;SDS011;5708;50.660;6.778;2023-06-26T14:10:03;7.57;;;1.67;;
11305;SDS011;5708;50.660;6.778;2023-06-26T14:12:30;6.75;;;1.63;;
11305;SDS011;5708;50.660;6.778;2023-06-26T14:14:55;8.98;;;1.77;;
11305;SDS011;5708;50.660;6.778;2023-06-26T14:17:21;7.57;;;1.80;;
11305;SDS011;5708;50.660;6.778;2023-06-26T14:19:49;6.70;;;1.98;;
11305;SDS011;5708;50.660;6.778;2023-06-26T14:22:15;12.48;;;2.10;;
11305;SDS011;5708;50.660;6.778;2023-06-26T14:24:40;7.72;;;1.60;;
11305;SDS011;5708;50.660;6.778;2023-06-26T14:27:05;7.72;;;2.10;;
11305;SDS011;5708;50.660;6.778;2023-06-26T14:29:31;10.63;;;2.05;;
11305;SDS011;5708;50.660;6.778;2023-06-26T14:31:56;4.75;;;1.75;;
11305;SDS011;5708;50.660;6.778;2023-06-26T14:34:21;6.53;;;1.50;;
11305;SDS011;5708;50.660;6.778;2023-06-26T14:36:47;9.70;;;1.75;;
11305;SDS011;5708;50.660;6.778;2023-06-26T14:39:12;7.38;;;1.80;;
11305;SDS011;5708;50.660;6.778;2023-06-26T14:41:38;5.35;;;1.60;;
11305;SDS011;5708;50.660;6.778;2023-06-26T14:44:03;10.88;;;2.13;;
11305;SDS011;5708;50.660;6.778;2023-06-26T14:46:29;6.28;;;1.38;;
11305;SDS011;5708;50.660;6.778;2023-06-26T14:48:55;7.05;;;1.75;;
11305;SDS011;5708;50.660;6.778;2023-06-26T14:51:20;8.55;;;1.83;;
11305;SDS011;5708;50.660;6.778;2023-06-26T14:53:46;6.47;;;1.70;;
11305;SDS011;5708;50.660;6.778;2023-06-26T14:56:12;5.72;;;1.90;;
11305;SDS011;5708;50.660;6.778;2023-06-26T14:58:38;5.80;;;1.48;;
11305;SDS011;5708;50.660;6.778;2023-06-26T15:01:03;10.82;;;1.70;;
11305;SDS011;5708;50.660;6.778;2023-06-26T15:03:28;6.28;;;2.08;;
11305;SDS011;5708;50.660;6.778;2023-06-26T15:05:54;6.53;;;1.70;;
11305;SDS011;5708;50.660;6.778;2023-06-26T15:08:19;6.88;;;1.70;;